Time;durP1;ratioP1;P1;durP2;ratioP2;P2;SDS_P1;SDS_P2;PMS_P1;PMS_P2;Temp;Humidity;BMP_temperature;BMP_pressure;BME280_temperature;BME280_humidity;BME280_pressure;Samples;Min_cycle;Max_cycle;Signal;HPM_P1;HPM_P2
2023/10/16 00:01:28;;;;;;;;;;;7.80;99.90;;;;;;2618002;47;20080;-76
2023/10/16 00:03:58;;;;;;;;;;;7.80;99.90;;;;;;2617462;47;19969;-76
2023/10/16 00:06:32;;;;;;;;;;;7.80;99.90;;;;;;2617710;47;19939;-76
2023/10/16 00:09:10;;;;;;;;;;;7.80;99.90;;;;;;2618187;54;19947;-75
2023/10/16 00:11:40;;;;;;;;;;;7.80;99.90;;;;;;2617998;49;19946;-75
2023/10/16 00:14:18;;;;;;;;;;;7.70;99.90;;;;;;2618089;54;19947;-75
2023/10/16 00:16:50;;;;;;;;;;;7.70;99.90;;;;;;2618544;54;19947;-75
2023/10/16 00:19:19;;;;;;;;;;;7.70;99.90;;;;;;2618029;46;20471;-75
2023/10/16 00:21:52;;;;;;;;;;;7.70;99.90;;;;;;2617795;47;19952;-75
2023/10/16 00:24:22;;;;;;;;;;;7.90;99.90;;;;;;2617750;46;19954;-75
2023/10/16 00:26:52;;;;;;;;;;;7.70;99.90;;;;;;2617502;54;19939;-75
2023/10/16 00:29:24;;;;;;;;;;;7.70;99.90;;;;;;2618624;54;19946;-74
2023/10/16 00:31:58;;;;;;;;;;;7.70;99.90;;;;;;2618568;54;19946;-74
2023/10/16 00:34:29;;;;;;;;;;;8.70;99.90;;;;;;2617253;46;19947;-74
2023/10/16 00:37:04;;;;;;;;;;;7.70;99.90;;;;;;2618204;51;19946;-73
2023/10/16 00:39:35;;;;;;;;;;;7.70;99.90;;;;;;2618215;47;19973;-75
2023/10/16 00:42:08;;;;;;;;;;;7.70;99.90;;;;;;2616870;54;19938;-74
2023/10/16 00:44:38;;;;;;;;;;;7.70;99.90;;;;;;2617947;47;19963;-74
2023/10/16 00:47:09;;;;;;;;;;;7.70;99.90;;;;;;2618552;54;20064;-74
2023/10/16 00:49:39;;;;;;;;;;;7.70;99.90;;;;;;2619051;47;19956;-74
2023/10/16 00:52:14;;;;;;;;;;;7.60;99.90;;;;;;2618032;47;19947;-74
2023/10/16 00:54:46;;;;;;;;;;;7.60;99.90;;;;;;2617210;54;19942;-74
2023/10/16 00:57:17;;;;;;;;;;;7.60;99.90;;;;;;2618056;47;19946;-73
2023/10/16 00:59:48;;;;;;;;;;;7.60;99.90;;;;;;2617458;47;19999;-74
2023/10/16 01:02:26;;;;;;;;;;;7.60;99.90;;;;;;2617356;47;19939;-75
2023/10/16 01:04:56;;;;;;;;;;;7.70;99.90;;;;;;2616351;47;19947;-75
2023/10/16 01:07:28;;;;;;;;;;;7.60;99.90;;;;;;2617160;54;19977;-74
2023/10/16 01:09:59;;;;;;;;;;;7.50;99.90;;;;;;2617417;47;20472;-75
2023/10/16 01:12:29;;;;;;;;;;;7.50;99.90;;;;;;2617120;47;19938;-74
2023/10/16 01:14:59;;;;;;;;;;;7.40;99.90;;;;;;2616297;47;19954;-74
2023/10/16 01:17:34;;;;;;;;;;;7.40;99.90;;;;;;2617621;47;19946;-74
2023/10/16 01:20:06;;;;;;;;;;;7.30;99.90;;;;;;2616889;47;19948;-75
2023/10/16 01:22:38;;;;;;;;;;;7.30;99.90;;;;;;2617084;54;19946;-75
2023/10/16 01:25:11;;;;;;;;;;;7.30;99.90;;;;;;2617125;47;19939;-74
2023/10/16 01:27:42;;;;;;;;;;;7.20;99.90;;;;;;2617105;47;19947;-74
2023/10/16 01:30:12;;;;;;;;;;;7.20;99.90;;;;;;2617362;39;20177;-74
2023/10/16 01:32:42;;;;;;;;;;;7.10;99.90;;;;;;2617161;47;19947;-75
2023/10/16 01:35:13;;;;;;;;;;;7.20;99.90;;;;;;2616846;47;19995;-74
2023/10/16 01:37:46;;;;;;;;;;;7.20;99.90;;;;;;2617106;54;19946;-73
2023/10/16 01:40:21;;;;;;;;;;;7.10;99.90;;;;;;2617115;54;19955;-74
2023/10/16 01:42:53;;;;;;;;;;;7.10;99.90;;;;;;2616766;54;19947;-74
2023/10/16 01:45:27;;;;;;;;;;;7.10;99.90;;;;;;2617168;54;19946;-74
2023/10/16 01:47:57;;;;;;;;;;;7.00;99.90;;;;;;2617290;54;19946;-75
2023/10/16 01:50:27;;;;;;;;;;;7.00;99.90;;;;;;2616838;54;20073;-74
2023/10/16 01:52:58;;;;;;;;;;;7.00;99.90;;;;;;2617052;54;19974;-74
2023/10/16 01:55:30;;;;;;;;;;;7.00;99.90;;;;;;2616645;54;19950;-74
2023/10/16 01:58:03;;;;;;;;;;;6.90;99.90;;;;;;2617424;47;19969;-74
2023/10/16 02:00:34;;;;;;;;;;;7.10;99.90;;;;;;2618568;54;19946;-73
2023/10/16 02:03:08;;;;;;;;;;;6.80;99.90;;;;;;2617942;47;19969;-74
2023/10/16 02:05:41;;;;;;;;;;;6.80;99.90;;;;;;2617849;47;19953;-74
2023/10/16 02:08:12;;;;;;;;;;;6.80;99.90;;;;;;2617473;54;19945;-74
2023/10/16 02:10:45;;;;;;;;;;;6.80;99.90;;;;;;2617771;39;20379;-75
2023/10/16 02:13:15;;;;;;;;;;;6.70;99.90;;;;;;2617579;54;19951;-74
2023/10/16 02:15:44;;;;;;;;;;;6.70;99.90;;;;;;2617229;47;19954;-74
2023/10/16 02:18:22;;;;;;;;;;;6.70;99.90;;;;;;2617077;47;19950;-74
2023/10/16 02:20:53;;;;;;;;;;;6.60;99.90;;;;;;2616849;47;19957;-74
2023/10/16 02:23:26;;;;;;;;;;;6.60;99.90;;;;;;2617105;39;20089;-75
2023/10/16 02:25:59;;;;;;;;;;;6.50;99.90;;;;;;2617863;39;20375;-74
2023/10/16 02:28:31;;;;;;;;;;;6.50;99.90;;;;;;2617879;39;20330;-74
2023/10/16 02:31:10;;;;;;;;;;;6.50;99.90;;;;;;2616753;47;20469;-74
2023/10/16 02:33:44;;;;;;;;;;;6.50;99.90;;;;;;2616157;54;19946;-74
2023/10/16 04:08:30;;;;;;;;;;;6.50;99.90;;;;;;2612140;54;21211;-71
2023/10/16 04:11:02;;;;;;;;;;;5.70;99.90;;;;;;2616852;54;19939;-71
2023/10/16 04:13:31;;;;;;;;;;;6.20;99.90;;;;;;2616726;39;20507;-72
2023/10/16 04:16:08;;;;;;;;;;;6.20;99.90;;;;;;2616967;54;20219;-73
2023/10/16 04:18:39;;;;;;;;;;;6.10;99.90;;;;;;2618254;54;19946;-74
2023/10/16 04:23:55;;;;;;;;;;;6.10;99.90;;;;;;2616853;54;19938;-74
2023/10/16 04:26:30;;;;;;;;;;;6.10;99.90;;;;;;2617908;47;19939;-72
2023/10/16 04:31:55;;;;;;;;;;;6.10;99.90;;;;;;2617746;47;19967;-73
2023/10/16 04:34:31;;;;;;;;;;;6.00;99.90;;;;;;2616633;47;19974;-73
2023/10/16 04:45:38;;;;;;;;;;;6.10;99.90;;;;;;2617064;47;19959;-72
2023/10/16 04:48:23;;;;;;;;;;;6.10;99.90;;;;;;2617719;47;20002;-72
2023/10/16 04:51:09;;;;;;;;;;;6.10;99.90;;;;;;2618785;47;20038;-74
2023/10/16 04:54:13;;;;;;;;;;;6.10;99.90;;;;;;2618876;47;19946;-74
2023/10/16 04:57:28;;;;;;;;;;;6.20;99.90;;;;;;2618745;47;19946;-75
2023/10/16 05:00:12;;;;;;;;;;;6.20;99.90;;;;;;2618136;47;19953;-72
2023/10/16 05:02:52;;;;;;;;;;;6.20;99.90;;;;;;2618318;54;19977;-73
2023/10/16 05:05:56;;;;;;;;;;;6.20;99.90;;;;;;2616684;54;19958;-74
2023/10/16 05:08:38;;;;;;;;;;;6.20;99.90;;;;;;2618575;47;20030;-75
2023/10/16 05:17:06;;;;;;;;;;;6.30;99.90;;;;;;2618852;54;19946;-76
2023/10/16 05:19:44;;;;;;;;;;;6.20;99.90;;;;;;2617936;54;20028;-73
2023/10/16 06:16:28;;;;;;;;;;;6.40;99.90;;;;;;2627293;54;19958;-80
2023/10/16 06:19:07;;;;;;;;;;;5.90;99.90;;;;;;2624828;54;19945;-62
2023/10/16 06:21:37;;;;;;;;;;;6.20;99.90;;;;;;2604700;51;19953;-62
2023/10/16 06:24:25;;;;;;;;;;;6.20;99.90;;;;;;2604544;47;20076;-62
2023/10/16 06:26:56;;;;;;;;;;;6.20;99.90;;;;;;2606395;39;20361;-61
2023/10/16 06:29:34;;;;;;;;;;;6.30;99.90;;;;;;2605409;54;19954;-62
2023/10/16 06:32:07;;;;;;;;;;;6.30;99.90;;;;;;2605508;46;19990;-61
2023/10/16 06:34:41;;;;;;;;;;;6.30;99.90;;;;;;2604798;54;20069;-62
2023/10/16 06:37:16;;;;;;;;;;;6.40;99.90;;;;;;2605892;50;19946;-61
2023/10/16 06:39:46;;;;;;;;;;;6.40;99.90;;;;;;2605834;54;19954;-62
2023/10/16 06:42:17;;;;;;;;;;;6.40;99.90;;;;;;2604825;54;19938;-61
2023/10/16 06:44:50;;;;;;;;;;;6.50;99.90;;;;;;2604017;47;19977;-62
2023/10/16 06:47:23;;;;;;;;;;;6.50;99.90;;;;;;2605073;47;19993;-63
2023/10/16 06:49:56;;;;;;;;;;;6.50;99.90;;;;;;2605908;54;19947;-60
2023/10/16 06:52:26;;;;;;;;;;;6.40;99.90;;;;;;2604891;54;19954;-62
2023/10/16 06:54:55;;;;;;;;;;;6.50;99.90;;;;;;2607422;54;19947;-78
2023/10/16 06:57:25;;;;;;;;;;;6.50;99.90;;;;;;2608255;54;20473;-75
2023/10/16 06:59:55;;;;;;;;;;;7.40;99.90;;;;;;2609961;39;20359;-75
2023/10/16 07:02:26;;;;;;;;;;;6.50;99.90;;;;;;2608269;39;20139;-74
2023/10/16 07:05:05;;;;;;;;;;;6.60;99.90;;;;;;2607096;47;19953;-74
2023/10/16 07:07:34;;;;;;;;;;;6.50;99.90;;;;;;2608027;54;19999;-75
2023/10/16 07:10:04;;;;;;;;;;;6.50;99.90;;;;;;2608345;47;19956;-73
2023/10/16 07:12:53;;;;;;;;;;;6.50;99.90;;;;;;2607502;54;19947;-75
2023/10/16 07:15:25;;;;;;;;;;;6.50;99.90;;;;;;2606822;54;19950;-75
2023/10/16 07:17:55;;;;;;;;;;;6.50;99.90;;;;;;2608455;54;19969;-76
2023/10/16 07:20:29;;;;;;;;;;;6.60;99.90;;;;;;2609127;47;19946;-77
2023/10/16 07:22:59;;;;;;;;;;;6.60;99.90;;;;;;2611119;47;19950;-77
2023/10/16 07:25:37;;;;;;;;;;;6.60;99.90;;;;;;2612199;47;19953;-80
2023/10/16 07:28:09;;;;;;;;;;;6.60;99.90;;;;;;2614291;39;20648;-78
2023/10/16 07:30:42;;;;;;;;;;;6.60;99.90;;;;;;2615756;47;19946;-77
2023/10/16 07:33:14;;;;;;;;;;;7.20;99.90;;;;;;2611717;47;19946;-76
2023/10/16 07:35:47;;;;;;;;;;;6.80;99.90;;;;;;2611048;47;19957;-76
2023/10/16 07:38:19;;;;;;;;;;;6.70;99.90;;;;;;2610394;46;19962;-76
2023/10/16 07:40:51;;;;;;;;;;;6.90;99.90;;;;;;2608992;47;19953;-78
2023/10/16 07:43:26;;;;;;;;;;;6.70;99.90;;;;;;2608973;47;19946;-76
2023/10/16 07:46:15;;;;;;;;;;;6.80;99.90;;;;;;2610976;39;20374;-78
2023/10/16 07:48:49;;;;;;;;;;;6.90;99.90;;;;;;2611173;47;19946;-75
2023/10/16 07:51:25;;;;;;;;;;;7.00;99.90;;;;;;2608534;47;20458;-78
2023/10/16 07:53:56;;;;;;;;;;;7.00;99.90;;;;;;2608141;47;19977;-80
2023/10/16 07:56:32;;;;;;;;;;;7.10;99.90;;;;;;2607321;54;19958;-79
2023/10/16 07:59:08;;;;;;;;;;;7.10;99.90;;;;;;2607463;39;20519;-76
2023/10/16 08:01:48;;;;;;;;;;;7.20;99.90;;;;;;2608648;47;20017;-79
2023/10/16 08:04:27;;;;;;;;;;;7.20;99.90;;;;;;2607696;54;20446;-77
2023/10/16 08:07:04;;;;;;;;;;;7.40;99.90;;;;;;2608313;47;19950;-77
2023/10/16 08:15:03;;;;;;;;;;;7.40;99.90;;;;;;2609428;54;19971;-77
2023/10/16 08:17:33;;;;;;;;;;;7.50;99.90;;;;;;2609381;54;19961;-79
2023/10/16 08:20:04;;;;;;;;;;;7.70;99.90;;;;;;2610595;47;19965;-78
2023/10/16 08:22:39;;;;;;;;;;;7.70;99.90;;;;;;2608750;47;19956;-80
2023/10/16 08:25:30;;;;;;;;;;;7.60;99.90;;;;;;2608236;46;19973;-77
2023/10/16 08:28:18;;;;;;;;;;;7.70;99.90;;;;;;2608887;47;20453;-75
2023/10/16 08:30:53;;;;;;;;;;;7.80;99.90;;;;;;2608405;47;19946;-76
2023/10/16 08:33:31;;;;;;;;;;;7.90;99.90;;;;;;2608553;47;19966;-75
2023/10/16 08:36:04;;;;;;;;;;;7.90;99.90;;;;;;2608896;47;19950;-79
2023/10/16 08:38:36;;;;;;;;;;;7.90;99.90;;;;;;2609913;54;19946;-75
2023/10/16 08:41:14;;;;;;;;;;;8.00;99.90;;;;;;2609800;47;19958;-76
2023/10/16 08:44:03;;;;;;;;;;;8.00;99.90;;;;;;2609726;47;19947;-76
2023/10/16 08:46:35;;;;;;;;;;;7.90;99.90;;;;;;2610965;47;19958;-80
2023/10/16 08:49:08;;;;;;;;;;;7.90;99.90;;;;;;2609788;47;19974;-78
2023/10/16 08:51:38;;;;;;;;;;;8.10;99.90;;;;;;2609961;54;19946;-77
2023/10/16 08:56:54;;;;;;;;;;;8.30;99.90;;;;;;2610290;47;19953;-75
2023/10/16 08:59:27;;;;;;;;;;;8.40;99.90;;;;;;2609686;54;19947;-75
2023/10/16 09:01:57;;;;;;;;;;;8.50;99.90;;;;;;2610771;54;19953;-76
2023/10/16 09:04:29;;;;;;;;;;;8.60;99.90;;;;;;2610940;47;20007;-78
2023/10/16 09:06:59;;;;;;;;;;;8.70;99.90;;;;;;2609037;47;19946;-75
2023/10/16 09:09:32;;;;;;;;;;;9.90;99.90;;;;;;2607996;47;19995;-77
2023/10/16 09:12:04;;;;;;;;;;;9.10;99.90;;;;;;2608629;54;19947;-74
2023/10/16 09:14:37;;;;;;;;;;;9.00;99.90;;;;;;2606877;47;19951;-76
2023/10/16 09:17:09;;;;;;;;;;;9.00;99.90;;;;;;2607724;47;19954;-75
2023/10/16 09:19:46;;;;;;;;;;;9.10;99.90;;;;;;2607818;47;20380;-76
2023/10/16 09:22:31;;;;;;;;;;;9.10;99.90;;;;;;2608678;47;19959;-76
2023/10/16 09:25:05;;;;;;;;;;;9.20;99.90;;;;;;2606628;53;19947;-74
2023/10/16 09:27:36;;;;;;;;;;;9.30;99.90;;;;;;2607117;54;20006;-74
2023/10/16 09:30:14;;;;;;;;;;;9.30;99.90;;;;;;2608088;47;20875;-78
2023/10/16 09:32:44;;;;;;;;;;;9.40;99.90;;;;;;2608100;50;19953;-77
2023/10/16 09:35:14;;;;;;;;;;;9.60;99.90;;;;;;2607512;54;19950;-79
2023/10/16 09:37:52;;;;;;;;;;;9.70;99.90;;;;;;2616238;54;19942;-79
2023/10/16 09:43:24;;;;;;;;;;;9.80;99.90;;;;;;2607432;47;20389;-74
2023/10/16 09:46:21;;;;;;;;;;;9.90;99.90;;;;;;2608207;47;19946;-75
2023/10/16 09:48:47;;;;;;;;;;;9.90;99.90;;;;;;2606925;47;19950;-75
2023/10/16 09:51:16;;;;;;;;;;;10.00;99.90;;;;;;2607686;54;19946;-75
2023/10/16 09:53:46;;;;;;;;;;;10.10;99.90;;;;;;2607980;47;19947;-75
2023/10/16 09:56:23;;;;;;;;;;;10.30;99.90;;;;;;2607959;47;19947;-76
2023/10/16 09:58:56;;;;;;;;;;;10.40;99.90;;;;;;2607998;46;19947;-76
2023/10/16 10:01:29;;;;;;;;;;;10.50;99.90;;;;;;2606797;47;19950;-75
2023/10/16 10:03:59;;;;;;;;;;;10.40;99.90;;;;;;2606377;54;19961;-75
2023/10/16 10:06:34;;;;;;;;;;;10.70;99.90;;;;;;2606495;47;20477;-74
2023/10/16 10:12:08;;;;;;;;;;;11.00;99.90;;;;;;2606638;54;19947;-75
2023/10/16 10:14:39;;;;;;;;;;;11.10;99.90;;;;;;2606276;46;20452;-75
2023/10/16 10:17:18;;;;;;;;;;;11.30;99.90;;;;;;2607672;47;20457;-74
2023/10/16 10:19:54;;;;;;;;;;;11.40;99.90;;;;;;2605954;47;19947;-74
2023/10/16 10:22:27;;;;;;;;;;;11.60;99.90;;;;;;2606851;47;20016;-75
2023/10/16 10:25:22;;;;;;;;;;;11.70;99.90;;;;;;2606372;47;20034;-78
2023/10/16 10:27:57;;;;;;;;;;;12.10;99.90;;;;;;2608147;39;20459;-76
2023/10/16 10:30:33;;;;;;;;;;;12.00;99.90;;;;;;2607517;47;20469;-70
2023/10/16 10:33:02;;;;;;;;;;;12.00;99.90;;;;;;2607195;46;19966;-75
2023/10/16 10:35:38;;;;;;;;;;;12.20;99.90;;;;;;2606516;47;20017;-74
2023/10/16 10:38:17;;;;;;;;;;;12.30;99.90;;;;;;2608387;54;19947;-74
2023/10/16 10:41:02;;;;;;;;;;;12.30;99.90;;;;;;2612095;54;19946;-76
2023/10/16 10:43:46;;;;;;;;;;;12.30;99.90;;;;;;2617952;39;20646;-74
2023/10/16 10:46:17;;;;;;;;;;;12.20;99.90;;;;;;2618798;47;20021;-74
2023/10/16 10:48:47;;;;;;;;;;;12.20;99.90;;;;;;2618261;54;19951;-79
2023/10/16 10:51:18;;;;;;;;;;;12.30;99.90;;;;;;2626170;54;19975;-79
2023/10/16 10:53:55;;;;;;;;;;;12.40;99.90;;;;;;2627188;54;19942;-81
2023/10/16 10:56:30;;;;;;;;;;;12.50;99.90;;;;;;2626272;54;20002;-80
2023/10/16 10:59:08;;;;;;;;;;;12.60;99.90;;;;;;2624282;39;20515;-78
2023/10/16 11:01:50;;;;;;;;;;;12.70;99.90;;;;;;2619146;54;19953;-77
2023/10/16 11:04:21;;;;;;;;;;;12.80;99.90;;;;;;2619931;47;19946;-78
2023/10/16 11:06:54;;;;;;;;;;;12.80;99.90;;;;;;2620807;47;20564;-76
2023/10/16 11:09:32;;;;;;;;;;;13.00;99.90;;;;;;2620566;54;19947;-79
2023/10/16 11:12:02;;;;;;;;;;;13.10;99.90;;;;;;2620917;47;19947;-79
2023/10/16 11:14:38;;;;;;;;;;;13.20;99.90;;;;;;2619696;54;19938;-77
2023/10/16 11:17:08;;;;;;;;;;;13.40;99.90;;;;;;2620073;47;20049;-76
2023/10/16 11:19:47;;;;;;;;;;;13.30;99.90;;;;;;2612311;47;19951;-78
2023/10/16 11:22:20;;;;;;;;;;;13.30;99.90;;;;;;2607936;39;20369;-75
2023/10/16 11:24:51;;;;;;;;;;;13.20;99.90;;;;;;2606987;54;20041;-75
2023/10/16 11:27:21;;;;;;;;;;;13.30;99.90;;;;;;2607372;47;19995;-76
2023/10/16 11:29:54;;;;;;;;;;;13.40;99.90;;;;;;2608043;47;19951;-77
2023/10/16 11:32:25;;;;;;;;;;;13.40;99.90;;;;;;2607587;47;19965;-75
2023/10/16 11:35:13;;;;;;;;;;;13.20;99.90;;;;;;2607237;47;20037;-77
2023/10/16 11:37:44;;;;;;;;;;;13.00;99.90;;;;;;2607701;54;20038;-74
2023/10/16 11:40:18;;;;;;;;;;;13.20;99.90;;;;;;2606948;47;20346;-75
2023/10/16 11:42:48;;;;;;;;;;;13.40;99.90;;;;;;2609792;54;19950;-74
2023/10/16 11:45:23;;;;;;;;;;;13.50;99.90;;;;;;2607350;54;20199;-80
2023/10/16 11:48:18;;;;;;;;;;;13.60;99.90;;;;;;2609008;47;20024;-74
2023/10/16 11:50:43;;;;;;;;;;;13.80;99.90;;;;;;2607891;47;19971;-77
2023/10/16 11:53:14;;;;;;;;;;;13.90;99.90;;;;;;2607844;54;19946;-74
2023/10/16 11:55:45;;;;;;;;;;;14.00;99.90;;;;;;2608708;47;19951;-75
2023/10/16 11:58:14;;;;;;;;;;;13.90;99.90;;;;;;2608097;47;19951;-74
2023/10/16 12:00:54;;;;;;;;;;;13.90;99.90;;;;;;2607133;47;20438;-73
2023/10/16 12:03:26;;;;;;;;;;;14.00;99.90;;;;;;2607410;47;19946;-76
2023/10/16 12:05:55;;;;;;;;;;;14.20;99.90;;;;;;2606658;47;19946;-75
2023/10/16 12:08:25;;;;;;;;;;;14.40;99.90;;;;;;2606142;54;20346;-75
2023/10/16 12:10:55;;;;;;;;;;;14.60;99.90;;;;;;2608345;47;20437;-77
2023/10/16 12:13:24;;;;;;;;;;;14.60;99.90;;;;;;2608084;47;19990;-77
2023/10/16 12:15:57;;;;;;;;;;;14.40;99.90;;;;;;2612947;47;19953;-75
2023/10/16 12:18:31;;;;;;;;;;;14.10;99.90;;;;;;2613585;47;19939;-76
2023/10/16 12:21:04;;;;;;;;;;;14.00;99.90;;;;;;2609531;47;19946;-75
2023/10/16 12:23:36;;;;;;;;;;;14.20;99.90;;;;;;2608264;47;20511;-74
2023/10/16 12:26:07;;;;;;;;;;;14.30;99.90;;;;;;2608978;54;20037;-74
2023/10/16 12:28:37;;;;;;;;;;;14.60;99.90;;;;;;2607177;47;19946;-76
2023/10/16 12:31:10;;;;;;;;;;;14.50;99.90;;;;;;2608600;47;19950;-76
2023/10/16 12:33:40;;;;;;;;;;;14.50;99.90;;;;;;2607383;54;20038;-78
2023/10/16 12:36:11;;;;;;;;;;;14.70;99.90;;;;;;2609394;47;19995;-78
2023/10/16 12:38:40;;;;;;;;;;;14.80;99.90;;;;;;2607748;47;19947;-76
2023/10/16 12:41:10;;;;;;;;;;;15.00;99.90;;;;;;2607314;47;19975;-77
2023/10/16 12:43:40;;;;;;;;;;;15.10;99.90;;;;;;2606627;47;19970;-74
2023/10/16 12:46:12;;;;;;;;;;;15.20;99.90;;;;;;2606819;47;19947;-75
2023/10/16 12:48:43;;;;;;;;;;;15.30;99.90;;;;;;2606879;54;20036;-75
2023/10/16 12:51:13;;;;;;;;;;;15.20;99.90;;;;;;2607199;54;19954;-74
2023/10/16 12:53:42;;;;;;;;;;;14.90;99.90;;;;;;2606916;54;19953;-75
2023/10/16 12:56:12;;;;;;;;;;;14.80;99.90;;;;;;2607575;54;20450;-75
2023/10/16 12:58:42;;;;;;;;;;;14.80;99.90;;;;;;2608274;47;20584;-77
2023/10/16 13:01:15;;;;;;;;;;;14.80;99.90;;;;;;2608458;47;20437;-77
2023/10/16 13:03:45;;;;;;;;;;;14.70;99.90;;;;;;2607797;47;20026;-77
2023/10/16 13:06:15;;;;;;;;;;;14.70;99.90;;;;;;2608245;54;20026;-76
2023/10/16 13:08:47;;;;;;;;;;;14.80;99.90;;;;;;2608448;47;19947;-76
2023/10/16 13:11:17;;;;;;;;;;;14.70;99.90;;;;;;2608953;47;19954;-75
2023/10/16 13:13:47;;;;;;;;;;;14.70;99.90;;;;;;2608523;53;20719;-75
2023/10/16 13:16:24;;;;;;;;;;;14.70;99.90;;;;;;2618998;54;20023;-76
2023/10/16 13:18:57;;;;;;;;;;;14.80;99.90;;;;;;2619056;47;19981;-76
2023/10/16 13:21:32;;;;;;;;;;;15.90;99.90;;;;;;2618954;39;20342;-76
2023/10/16 13:24:05;;;;;;;;;;;14.70;99.90;;;;;;2615321;54;19946;-76
2023/10/16 13:26:36;;;;;;;;;;;14.80;99.90;;;;;;2615740;39;20322;-76
2023/10/16 13:29:07;;;;;;;;;;;14.70;99.90;;;;;;2615890;47;19957;-76
2023/10/16 13:31:41;;;;;;;;;;;14.70;99.90;;;;;;2616904;54;19947;-76
2023/10/16 13:34:11;;;;;;;;;;;14.70;99.90;;;;;;2617659;47;19938;-76
2023/10/16 13:36:42;;;;;;;;;;;14.60;99.90;;;;;;2617283;47;20057;-76
2023/10/16 13:39:12;;;;;;;;;;;14.60;99.90;;;;;;2618433;47;19946;-75
2023/10/16 13:41:50;;;;;;;;;;;14.60;99.90;;;;;;2618122;47;19974;-75
2023/10/16 13:44:22;;;;;;;;;;;14.60;99.90;;;;;;2618172;54;19995;-75
2023/10/16 13:46:55;;;;;;;;;;;14.60;99.90;;;;;;2616872;54;19953;-74
2023/10/16 13:49:25;;;;;;;;;;;14.50;99.90;;;;;;2617279;39;20369;-73
2023/10/16 13:51:55;;;;;;;;;;;14.30;99.90;;;;;;2617520;54;19939;-74
2023/10/16 13:54:24;;;;;;;;;;;14.20;99.90;;;;;;2617822;39;20381;-74
2023/10/16 13:56:54;;;;;;;;;;;14.10;99.90;;;;;;2618093;39;20365;-74
2023/10/16 13:59:26;;;;;;;;;;;14.10;99.90;;;;;;2615706;47;19957;-75
2023/10/16 14:02:01;;;;;;;;;;;14.10;99.90;;;;;;2616978;47;20460;-75
2023/10/16 14:04:33;;;;;;;;;;;14.20;99.90;;;;;;2615027;54;19947;-74
2023/10/16 14:07:08;;;;;;;;;;;14.30;99.90;;;;;;2616738;47;19947;-74
2023/10/16 14:09:38;;;;;;;;;;;14.20;99.90;;;;;;2617504;54;19953;-75
2023/10/16 14:12:16;;;;;;;;;;;14.20;99.90;;;;;;2617900;54;19939;-74
2023/10/16 14:14:51;;;;;;;;;;;14.30;99.90;;;;;;2617212;47;19950;-74
2023/10/16 14:17:24;;;;;;;;;;;14.30;99.90;;;;;;2617446;54;20013;-74
2023/10/16 14:19:53;;;;;;;;;;;14.30;99.90;;;;;;2617613;47;19968;-74
2023/10/16 14:22:29;;;;;;;;;;;14.30;99.90;;;;;;2618039;54;19947;-75
2023/10/16 14:24:59;;;;;;;;;;;15.10;99.90;;;;;;2617715;46;19947;-74
2023/10/16 14:27:30;;;;;;;;;;;14.30;99.90;;;;;;2617667;54;19938;-74
2023/10/16 14:30:01;;;;;;;;;;;14.30;99.90;;;;;;2618260;54;19954;-74
2023/10/16 14:32:35;;;;;;;;;;;14.30;99.90;;;;;;2617809;54;20026;-74
2023/10/16 14:35:04;;;;;;;;;;;14.30;99.90;;;;;;2617079;47;19953;-73
2023/10/16 14:37:34;;;;;;;;;;;14.30;99.90;;;;;;2615553;54;19953;-73
2023/10/16 14:40:05;;;;;;;;;;;14.20;99.90;;;;;;2617743;54;19951;-73
2023/10/16 14:42:34;;;;;;;;;;;14.20;99.90;;;;;;2618092;47;19954;-74
2023/10/16 14:45:06;;;;;;;;;;;14.10;99.90;;;;;;2617048;54;19945;-74
2023/10/16 14:47:39;;;;;;;;;;;13.90;99.90;;;;;;2616804;54;19947;-74
2023/10/16 14:50:09;;;;;;;;;;;13.90;99.90;;;;;;2615912;54;19992;-73
2023/10/16 14:52:38;;;;;;;;;;;14.00;99.90;;;;;;2615490;54;19995;-73
2023/10/16 14:55:08;;;;;;;;;;;14.10;99.90;;;;;;2615896;54;19938;-74
2023/10/16 14:57:38;;;;;;;;;;;14.20;99.90;;;;;;2618244;54;19945;-75
2023/10/16 15:00:32;;;;;;;;;;;14.10;99.90;;;;;;2622025;54;19951;-75
2023/10/16 15:03:10;;;;;;;;;;;14.10;99.90;;;;;;2621640;54;19946;-74
2023/10/16 15:05:41;;;;;;;;;;;14.00;99.90;;;;;;2622816;54;19953;-76
2023/10/16 15:08:13;;;;;;;;;;;14.00;99.90;;;;;;2621839;46;20013;-77
2023/10/16 15:10:44;;;;;;;;;;;13.90;99.90;;;;;;2620616;39;20337;-75
2023/10/16 15:13:21;;;;;;;;;;;13.80;99.90;;;;;;2619452;54;19947;-75
2023/10/16 15:15:51;;;;;;;;;;;13.60;99.90;;;;;;2618300;47;20079;-74
2023/10/16 15:18:23;;;;;;;;;;;13.50;99.90;;;;;;2616846;47;19947;-74
2023/10/16 15:20:53;;;;;;;;;;;13.50;99.90;;;;;;2615638;54;19946;-72
2023/10/16 15:23:24;;;;;;;;;;;13.50;99.90;;;;;;2616199;54;19946;-74
2023/10/16 15:25:54;;;;;;;;;;;13.40;99.90;;;;;;2616732;47;19947;-75
2023/10/16 15:28:25;;;;;;;;;;;13.40;99.90;;;;;;2616501;46;19954;-73
2023/10/16 15:31:15;;;;;;;;;;;13.40;99.90;;;;;;2615980;47;19981;-72
2023/10/16 15:33:49;;;;;;;;;;;13.30;99.90;;;;;;2615014;47;19947;-72
2023/10/16 15:36:19;;;;;;;;;;;13.30;99.90;;;;;;2616334;47;19959;-71
2023/10/16 15:38:49;;;;;;;;;;;13.30;99.90;;;;;;2616989;47;19946;-76
2023/10/16 15:41:19;;;;;;;;;;;13.20;99.90;;;;;;2617036;47;19947;-71
2023/10/16 15:43:49;;;;;;;;;;;13.20;99.90;;;;;;2613476;47;19946;-74
2023/10/16 15:46:30;;;;;;;;;;;13.20;99.90;;;;;;2617545;49;19947;-75
2023/10/16 15:49:05;;;;;;;;;;;12.70;99.90;;;;;;2617676;54;19946;-74
2023/10/16 15:51:36;;;;;;;;;;;13.10;99.90;;;;;;2617450;54;19946;-75
2023/10/16 15:54:09;;;;;;;;;;;13.00;99.90;;;;;;2617471;47;19942;-76
2023/10/16 15:56:39;;;;;;;;;;;13.00;99.90;;;;;;2618047;47;19947;-76
2023/10/16 15:59:09;;;;;;;;;;;12.90;99.90;;;;;;2617782;47;19946;-73
2023/10/16 16:01:38;;;;;;;;;;;12.90;99.90;;;;;;2617330;47;19991;-72
2023/10/16 16:04:18;;;;;;;;;;;12.80;99.90;;;;;;2617365;47;19950;-76
2023/10/16 16:06:48;;;;;;;;;;;12.70;99.90;;;;;;2617822;50;20066;-77
2023/10/16 16:09:18;;;;;;;;;;;12.50;99.90;;;;;;2626217;54;20004;-77
2023/10/16 16:11:48;;;;;;;;;;;12.50;99.90;;;;;;2627852;54;20014;-77
2023/10/16 16:14:19;;;;;;;;;;;12.50;99.90;;;;;;2621014;47;19947;-78
2023/10/16 16:16:51;;;;;;;;;;;12.50;99.90;;;;;;2618240;47;19954;-77
2023/10/16 16:19:24;;;;;;;;;;;12.40;99.90;;;;;;2619927;46;19966;-77
2023/10/16 16:21:54;;;;;;;;;;;12.40;99.90;;;;;;2618058;47;20118;-77
2023/10/16 16:24:24;;;;;;;;;;;12.20;99.90;;;;;;2620392;47;19939;-77
2023/10/16 16:26:55;;;;;;;;;;;12.40;99.90;;;;;;2619234;47;20011;-77
2023/10/16 16:29:25;;;;;;;;;;;12.10;99.90;;;;;;2619623;54;19946;-77
2023/10/16 16:31:57;;;;;;;;;;;12.10;99.90;;;;;;2619136;47;20030;-78
2023/10/16 16:34:30;;;;;;;;;;;12.10;99.90;;;;;;2621282;54;19940;-78
2023/10/16 16:37:00;;;;;;;;;;;12.00;99.90;;;;;;2622829;46;20443;-78
2023/10/16 16:39:32;;;;;;;;;;;12.50;99.90;;;;;;2623060;46;19947;-78
2023/10/16 16:42:04;;;;;;;;;;;11.90;99.90;;;;;;2622124;54;19964;-79
2023/10/16 16:44:34;;;;;;;;;;;11.90;99.90;;;;;;2622723;47;19946;-77
2023/10/16 16:47:04;;;;;;;;;;;11.80;99.90;;;;;;2623128;47;19938;-79
2023/10/16 16:49:38;;;;;;;;;;;11.80;99.90;;;;;;2622742;46;20065;-78
2023/10/16 16:52:08;;;;;;;;;;;11.70;99.90;;;;;;2622238;54;19988;-77
2023/10/16 16:54:38;;;;;;;;;;;11.70;99.90;;;;;;2622421;46;19954;-77
2023/10/16 16:57:08;;;;;;;;;;;11.70;99.90;;;;;;2621594;54;19950;-78
2023/10/16 16:59:38;;;;;;;;;;;11.70;99.90;;;;;;2622089;54;19957;-78
2023/10/16 17:02:09;;;;;;;;;;;11.60;99.90;;;;;;2623119;47;19946;-79
2023/10/16 17:04:42;;;;;;;;;;;11.50;99.90;;;;;;2622998;39;20315;-78
2023/10/16 17:07:16;;;;;;;;;;;11.30;99.90;;;;;;2622692;47;20835;-80
2023/10/16 17:09:48;;;;;;;;;;;11.30;99.90;;;;;;2623947;54;19947;-77
2023/10/16 17:12:19;;;;;;;;;;;11.20;99.90;;;;;;2624228;47;19953;-77
2023/10/16 17:14:50;;;;;;;;;;;11.20;99.90;;;;;;2623464;46;19980;-78
2023/10/16 17:17:23;;;;;;;;;;;11.20;99.90;;;;;;2622969;46;19955;-78
2023/10/16 17:19:58;;;;;;;;;;;11.30;99.90;;;;;;2621776;46;19947;-78
2023/10/16 17:22:30;;;;;;;;;;;11.20;99.90;;;;;;2622772;54;19938;-77
2023/10/16 17:25:21;;;;;;;;;;;11.20;99.90;;;;;;2625182;47;19974;-78
2023/10/16 17:27:52;;;;;;;;;;;11.20;99.90;;;;;;2629474;54;19981;-77
2023/10/16 17:30:37;;;;;;;;;;;11.20;99.90;;;;;;2625488;54;20780;-77
2023/10/16 17:36:00;;;;;;;;;;;11.10;99.90;;;;;;2605200;39;20324;-71
2023/10/16 17:38:30;;;;;;;;;;;11.10;99.90;;;;;;2614837;54;20453;-71
2023/10/16 17:41:01;;;;;;;;;;;11.10;99.90;;;;;;2615729;46;19958;-72
2023/10/16 17:43:31;;;;;;;;;;;11.10;99.90;;;;;;2615638;54;19950;-70
2023/10/16 17:46:01;;;;;;;;;;;11.00;99.90;;;;;;2615978;54;19947;-71
2023/10/16 17:48:31;;;;;;;;;;;11.00;99.90;;;;;;2615682;54;20065;-71
2023/10/16 17:51:05;;;;;;;;;;;10.90;99.90;;;;;;2616870;54;19991;-71
2023/10/16 17:53:34;;;;;;;;;;;10.90;99.90;;;;;;2616752;54;19971;-71
2023/10/16 17:56:05;;;;;;;;;;;10.80;99.90;;;;;;2616642;50;19946;-71
2023/10/16 17:58:34;;;;;;;;;;;10.80;99.90;;;;;;2616979;39;20438;-72
2023/10/16 18:01:12;;;;;;;;;;;10.70;99.90;;;;;;2616335;54;20441;-70
2023/10/16 18:03:45;;;;;;;;;;;10.70;99.90;;;;;;2616657;54;20003;-75